Time;durP1;ratioP1;P1;durP2;ratioP2;P2;SDS_P1;SDS_P2;PMS_P1;PMS_P2;Temp;Humidity;BMP_temperature;BMP_pressure;BME280_temperature;BME280_humidity;BME280_pressure;Samples;Min_cycle;Max_cycle;Signal;HPM_P1;HPM_P2
2023/12/30 00:00:43;;;;;;;12.70;2.40;;;;;;;4.51;100.00;98390.11;109114;1257;73356;-60
2023/12/30 00:03:37;;;;;;;9.00;2.40;;;;;;;4.52;100.00;98389.92;109220;1257;67863;-60
2023/12/30 00:06:25;;;;;;;10.50;2.40;;;;;;;4.52;100.00;98386.04;109165;1257;71131;-61
2023/12/30 00:09:12;;;;;;;10.30;2.60;;;;;;;4.52;100.00;98381.63;109097;1257;59852;-60
2023/12/30 00:12:00;;;;;;;9.30;2.50;;;;;;;4.53;100.00;98375.23;109189;1257;59000;-61
2023/12/30 00:14:47;;;;;;;9.30;2.20;;;;;;;4.55;100.00;98376.07;109116;1257;73066;-60
2023/12/30 00:17:35;;;;;;;10.90;2.60;;;;;;;4.57;100.00;98372.81;109229;1257;67659;-62
2023/12/30 00:20:23;;;;;;;11.50;3.00;;;;;;;4.56;100.00;98364.95;109146;1257;72398;-60
2023/12/30 00:23:10;;;;;;;10.10;2.50;;;;;;;4.57;100.00;98371.59;109094;1258;59983;-61
2023/12/30 00:25:58;;;;;;;7.20;2.30;;;;;;;4.58;100.00;98377.45;109178;1257;60274;-62
2023/12/30 00:28:47;;;;;;;7.00;2.10;;;;;;;4.60;100.00;98383.80;109128;1257;71002;-61
2023/12/30 00:31:35;;;;;;;9.80;2.30;;;;;;;4.60;100.00;98388.19;109153;1257;66298;-61
2023/12/30 00:34:22;;;;;;;9.60;2.70;;;;;;;4.62;100.00;98384.02;109116;1257;72714;-60
2023/12/30 00:37:13;;;;;;;9.00;2.00;;;;;;;4.63;100.00;98382.52;109203;1257;58125;-60
2023/12/30 00:40:04;;;;;;;9.70;3.10;;;;;;;4.65;100.00;98387.10;109263;1256;58951;-61
2023/12/30 00:42:52;;;;;;;14.30;2.60;;;;;;;4.66;100.00;98387.21;109229;1256;72893;-61
2023/12/30 00:45:41;;;;;;;8.40;2.30;;;;;;;4.66;100.00;98386.64;109185;1257;67939;-61
2023/12/30 00:48:34;;;;;;;10.70;2.40;;;;;;;4.69;100.00;98382.75;109211;1257;71106;-61
2023/12/30 00:51:22;;;;;;;10.00;2.30;;;;;;;4.70;100.00;98376.49;109227;1257;57332;-60
2023/12/30 00:54:09;;;;;;;8.40;2.40;;;;;;;4.70;100.00;98377.36;109214;1257;58723;-61
2023/12/30 00:56:57;;;;;;;7.80;2.80;;;;;;;4.71;100.00;98375.34;109198;1256;73202;-61
2023/12/30 00:59:45;;;;;;;7.40;2.20;;;;;;;4.72;100.00;98372.27;109173;1257;68624;-62
2023/12/30 01:02:33;;;;;;;7.50;1.80;;;;;;;4.74;100.00;98358.11;109097;1257;73679;-64
2023/12/30 01:05:20;;;;;;;7.90;2.00;;;;;;;4.74;100.00;98358.61;109198;1257;58004;-60
2023/12/30 01:08:08;;;;;;;7.70;2.70;;;;;;;4.76;100.00;98361.80;109228;1257;59040;-61
2023/12/30 01:10:56;;;;;;;9.60;2.30;;;;;;;4.77;100.00;98358.00;109098;1257;71568;-61
2023/12/30 01:13:43;;;;;;;7.50;2.20;;;;;;;4.77;100.00;98350.08;109182;1257;67704;-61
2023/12/30 01:16:34;;;;;;;7.40;2.40;;;;;;;4.77;100.00;98356.45;109221;1257;73597;-61
2023/12/30 01:19:23;;;;;;;7.60;1.90;;;;;;;4.76;100.00;98358.61;109223;1257;57376;-60
2023/12/30 01:22:11;;;;;;;8.10;2.30;;;;;;;4.76;100.00;98347.20;109076;1257;60004;-61
2023/12/30 01:24:59;;;;;;;7.50;1.80;;;;;;;4.76;100.00;98352.09;109145;1257;73097;-61
2023/12/30 01:27:47;;;;;;;7.80;1.90;;;;;;;4.75;100.00;98339.04;109217;1257;68938;-60
2023/12/30 01:30:38;;;;;;;9.50;2.10;;;;;;;4.73;100.00;98339.52;109088;1257;71193;-61
2023/12/30 01:33:25;;;;;;;11.70;2.40;;;;;;;4.74;100.00;98342.66;109168;1257;57486;-60
2023/12/30 01:36:14;;;;;;;8.70;2.60;;;;;;;4.74;100.00;98348.41;109212;1256;61534;-60
2023/12/30 01:39:01;;;;;;;9.20;2.40;;;;;;;4.77;100.00;98348.36;109166;1257;74032;-61
2023/12/30 01:41:51;;;;;;;8.10;1.90;;;;;;;4.78;100.00;98347.41;109227;1257;68690;-61
2023/12/30 01:44:39;;;;;;;6.60;1.90;;;;;;;4.80;100.00;98344.45;109198;1257;71517;-61
2023/12/30 01:47:27;;;;;;;8.50;2.10;;;;;;;4.81;100.00;98347.00;109183;1257;57398;-62
2023/12/30 01:50:15;;;;;;;6.10;1.70;;;;;;;4.83;100.00;98353.54;109154;1256;60169;-61
2023/12/30 01:53:04;;;;;;;9.70;2.10;;;;;;;4.84;100.00;98354.17;109216;1257;72746;-62
2023/12/30 01:55:53;;;;;;;8.80;2.30;;;;;;;4.85;100.00;98353.86;109163;1257;68124;-60
2023/12/30 01:58:42;;;;;;;8.70;2.20;;;;;;;4.84;100.00;98356.91;109178;1257;72409;-62
2023/12/30 02:01:30;;;;;;;8.30;2.00;;;;;;;4.85;100.00;98360.73;109100;1257;58272;-60
2023/12/30 02:04:18;;;;;;;10.00;2.40;;;;;;;4.83;100.00;98359.98;109139;1257;59130;-61
2023/12/30 02:07:05;;;;;;;8.30;2.40;;;;;;;4.82;100.00;98362.19;109131;1257;73054;-60
2023/12/30 02:09:53;;;;;;;7.10;2.00;;;;;;;4.82;100.00;98364.10;109184;1257;67767;-60
2023/12/30 02:12:42;;;;;;;6.40;2.10;;;;;;;4.83;100.00;98362.98;109139;1257;73641;-61
2023/12/30 02:15:29;;;;;;;8.70;2.20;;;;;;;4.82;100.00;98360.65;109123;1257;58132;-61
2023/12/30 02:18:18;;;;;;;9.70;2.00;;;;;;;4.83;100.00;98360.05;109184;1257;61181;-60
2023/12/30 02:21:07;;;;;;;7.50;2.20;;;;;;;4.82;100.00;98359.21;109100;1257;73968;-60
2023/12/30 02:23:54;;;;;;;8.40;2.30;;;;;;;4.83;100.00;98353.35;109204;1257;66558;-61
2023/12/30 02:26:42;;;;;;;7.90;2.10;;;;;;;4.83;100.00;98344.88;109152;1257;71947;-61
2023/12/30 02:29:30;;;;;;;7.20;2.00;;;;;;;4.85;100.00;98350.34;109215;1257;58549;-62
2023/12/30 02:32:17;;;;;;;8.70;2.30;;;;;;;4.85;100.00;98341.04;109179;1261;59993;-61
2023/12/30 02:35:05;;;;;;;8.50;2.30;;;;;;;4.84;100.00;98335.48;109155;1257;71826;-61
2023/12/30 02:37:54;;;;;;;8.10;2.20;;;;;;;4.85;100.00;98331.91;109190;1257;67763;-61
2023/12/30 02:40:42;;;;;;;8.50;1.70;;;;;;;4.86;100.00;98333.19;109039;1257;73666;-61
2023/12/30 02:43:34;;;;;;;9.40;2.20;;;;;;;4.87;100.00;98332.27;109113;1257;57310;-62
2023/12/30 02:46:22;;;;;;;9.20;2.00;;;;;;;4.88;100.00;98331.66;109103;1257;59998;-60
2023/12/30 02:49:10;;;;;;;7.70;2.20;;;;;;;4.86;100.00;98325.18;109139;1257;71703;-60
2023/12/30 02:51:57;;;;;;;7.90;1.80;;;;;;;4.91;100.00;98338.62;109202;1257;65786;-61
2023/12/30 02:54:45;;;;;;;8.50;1.90;;;;;;;4.93;100.00;98338.23;109202;1257;73932;-60
2023/12/30 02:57:33;;;;;;;8.50;2.00;;;;;;;4.95;100.00;98339.65;109190;1257;58035;-60
2023/12/30 03:00:36;;;;;;;8.80;2.00;;;;;;;4.97;100.00;98331.60;109125;1257;61373;-61
2023/12/30 03:03:24;;;;;;;7.90;2.10;;;;;;;5.00;100.00;98332.64;109187;1257;73766;-62
2023/12/30 03:06:14;;;;;;;8.40;2.20;;;;;;;4.99;100.00;98331.61;109017;1257;66917;-61
2023/12/30 03:09:03;;;;;;;8.30;2.00;;;;;;;4.99;100.00;98337.08;109152;1257;71035;-61
2023/12/30 03:11:51;;;;;;;8.90;2.00;;;;;;;4.95;100.00;98328.42;109078;1263;59878;-60
2023/12/30 03:14:38;;;;;;;8.80;2.10;;;;;;;4.93;100.00;98324.71;109136;1257;59117;-63
2023/12/30 03:17:25;;;;;;;8.20;2.00;;;;;;;4.92;100.00;98322.54;109193;1257;72758;-60
2023/12/30 03:20:13;;;;;;;8.40;2.10;;;;;;;4.91;100.00;98329.14;109118;1257;67645;-60
2023/12/30 03:23:01;;;;;;;9.00;2.50;;;;;;;4.88;100.00;98326.70;109169;1258;72530;-62
2023/12/30 03:25:53;;;;;;;8.30;2.20;;;;;;;4.87;100.00;98331.20;109072;1263;57515;-60
2023/12/30 03:28:40;;;;;;;9.10;2.20;;;;;;;4.87;100.00;98329.67;109129;1257;58360;-61
2023/12/30 03:31:28;;;;;;;11.00;2.30;;;;;;;4.87;100.00;98327.54;109008;1257;73079;-61
2023/12/30 03:34:16;;;;;;;8.60;2.00;;;;;;;4.87;100.00;98326.97;109219;1257;68665;-62
2023/12/30 03:37:04;;;;;;;8.30;2.20;;;;;;;4.89;100.00;98327.56;109183;1258;72715;-61
2023/12/30 03:39:52;;;;;;;10.60;2.50;;;;;;;4.88;100.00;98324.48;109194;1257;58831;-62
2023/12/30 03:42:40;;;;;;;8.60;1.90;;;;;;;4.87;100.00;98332.98;109028;1258;61084;-60
2023/12/30 03:45:27;;;;;;;10.90;2.20;;;;;;;4.86;100.00;98322.18;109118;1257;72906;-60
2023/12/30 03:48:15;;;;;;;7.10;2.10;;;;;;;4.84;100.00;98322.89;109139;1257;66867;-60
2023/12/30 03:51:02;;;;;;;9.00;2.10;;;;;;;4.83;100.00;98319.80;108984;1258;72721;-61
2023/12/30 03:53:51;;;;;;;9.50;2.30;;;;;;;4.82;100.00;98319.37;109016;1257;57403;-62
2023/12/30 03:56:39;;;;;;;8.70;2.90;;;;;;;4.79;100.00;98319.71;109114;1257;58796;-61
2023/12/30 03:59:27;;;;;;;10.30;2.50;;;;;;;4.77;100.00;98324.57;109172;1257;72696;-62
2023/12/30 04:02:18;;;;;;;12.60;2.60;;;;;;;4.74;100.00;98333.29;109151;1257;66855;-61
2023/12/30 04:05:06;;;;;;;8.40;2.30;;;;;;;4.73;100.00;98338.32;109157;1257;71197;-63
2023/12/30 04:07:54;;;;;;;9.30;2.60;;;;;;;4.73;100.00;98340.96;108853;1257;330891;-62
2023/12/30 04:10:42;;;;;;;10.40;2.50;;;;;;;4.74;100.00;98342.28;108981;1261;61236;-60
2023/12/30 04:13:30;;;;;;;11.70;2.60;;;;;;;4.74;100.00;98336.49;109189;1257;72725;-61
2023/12/30 04:16:17;;;;;;;6.90;2.10;;;;;;;4.74;100.00;98332.93;109190;1256;69245;-60
2023/12/30 04:19:05;;;;;;;10.20;2.40;;;;;;;4.72;100.00;98336.63;109108;1257;73903;-61
2023/12/30 04:21:53;;;;;;;8.80;2.50;;;;;;;4.64;100.00;98323.23;109046;1258;57401;-61
2023/12/30 04:24:41;;;;;;;7.90;2.10;;;;;;;4.65;100.00;98331.96;109197;1257;61538;-61
2023/12/30 04:27:29;;;;;;;8.80;2.00;;;;;;;4.61;100.00;98330.51;109087;1257;72584;-62
2023/12/30 04:30:17;;;;;;;8.00;2.20;;;;;;;4.61;100.00;98329.45;109129;1257;66261;-61
2023/12/30 04:33:05;;;;;;;11.30;2.00;;;;;;;4.59;100.00;98329.77;109076;1257;72404;-63
2023/12/30 04:35:54;;;;;;;6.50;1.80;;;;;;;4.58;100.00;98332.13;109089;1257;57825;-66
2023/12/30 04:38:42;;;;;;;10.10;2.10;;;;;;;4.56;100.00;98335.65;108995;1260;59967;-63
2023/12/30 04:41:32;;;;;;;8.10;1.70;;;;;;;4.55;100.00;98337.15;109165;1257;72771;-63
2023/12/30 04:44:20;;;;;;;8.40;1.80;;;;;;;4.52;100.00;98338.60;109092;1257;69353;-62
2023/12/30 04:47:08;;;;;;;6.80;1.60;;;;;;;4.51;100.00;98340.77;109038;1257;72662;-61
2023/12/30 04:49:56;;;;;;;6.60;1.50;;;;;;;4.47;100.00;98339.84;109106;1257;59565;-62
2023/12/30 04:52:44;;;;;;;9.30;2.10;;;;;;;4.44;100.00;98336.27;109221;1257;59223;-63
2023/12/30 04:55:32;;;;;;;6.80;1.70;;;;;;;4.35;100.00;98330.44;109120;1257;73092;-60
2023/12/30 04:58:20;;;;;;;8.90;2.10;;;;;;;4.34;100.00;98342.11;109047;1257;66627;-61
2023/12/30 05:01:11;;;;;;;7.80;1.80;;;;;;;4.29;100.00;98334.28;109156;1257;71478;-62
2023/12/30 05:03:59;;;;;;;7.40;1.50;;;;;;;4.24;100.00;98336.79;109045;1257;57728;-62
2023/12/30 05:06:47;;;;;;;9.10;2.00;;;;;;;4.20;100.00;98343.95;109004;1257;59388;-62
2023/12/30 05:09:35;;;;;;;7.10;1.70;;;;;;;4.16;100.00;98352.48;109162;1257;72462;-61
2023/12/30 05:12:23;;;;;;;6.60;1.80;;;;;;;4.14;100.00;98354.92;109028;1257;67192;-62
2023/12/30 05:15:13;;;;;;;8.20;2.20;;;;;;;4.11;100.00;98360.59;109197;1257;72553;-61
2023/12/30 05:18:01;;;;;;;11.10;2.50;;;;;;;4.09;100.00;98369.16;109135;1257;58722;-61
2023/12/30 05:20:49;;;;;;;7.10;2.00;;;;;;;4.11;100.00;98367.46;108188;1261;1002457;-61
2023/12/30 05:23:37;;;;;;;8.60;2.20;;;;;;;4.14;100.00;98362.48;109181;1257;73997;-61
2023/12/30 05:26:25;;;;;;;8.10;2.00;;;;;;;4.16;100.00;98359.85;109132;1257;66837;-61
2023/12/30 05:29:13;;;;;;;8.80;2.10;;;;;;;4.18;100.00;98366.01;109097;1258;72542;-62
2023/12/30 05:32:00;;;;;;;7.50;2.10;;;;;;;4.22;100.00;98362.40;109129;1257;59308;-62
2023/12/30 05:34:48;;;;;;;8.90;2.00;;;;;;;4.25;100.00;98363.15;109113;1257;60388;-63
2023/12/30 05:37:36;;;;;;;8.80;2.10;;;;;;;4.29;100.00;98367.11;109169;1257;72695;-61
2023/12/30 05:40:23;;;;;;;7.70;2.20;;;;;;;4.31;100.00;98370.81;109188;1257;67878;-62
2023/12/30 05:43:12;;;;;;;6.60;1.60;;;;;;;4.33;100.00;98375.17;109181;1257;71216;-61
2023/12/30 05:46:00;;;;;;;9.40;2.10;;;;;;;4.37;100.00;98378.25;109080;1257;59020;-62
2023/12/30 05:48:48;;;;;;;7.20;2.10;;;;;;;4.41;100.00;98376.88;109197;1257;58992;-61
2023/12/30 05:51:41;;;;;;;7.40;1.80;;;;;;;4.42;100.00;98376.95;108408;1257;1002702;-62
2023/12/30 05:54:29;;;;;;;7.40;2.20;;;;;;;4.44;100.00;98377.19;109115;1257;67639;-61
2023/12/30 05:57:17;;;;;;;8.00;2.00;;;;;;;4.48;100.00;98380.70;109115;1257;73223;-60
2023/12/30 06:00:08;;;;;;;8.60;1.90;;;;;;;4.53;100.00;98376.12;109171;1257;58802;-61
2023/12/30 06:03:01;;;;;;;10.10;2.00;;;;;;;4.58;100.00;98382.20;109095;1257;60950;-61
2023/12/30 06:05:49;;;;;;;8.30;2.00;;;;;;;4.62;100.00;98382.66;109193;1257;72020;-61
2023/12/30 06:08:37;;;;;;;9.70;2.00;;;;;;;4.64;100.00;98376.84;109211;1257;68698;-61
2023/12/30 06:11:24;;;;;;;9.00;2.00;;;;;;;4.61;100.00;98369.33;109083;1257;71103;-64
2023/12/30 06:14:15;;;;;;;12.10;1.90;;;;;;;4.72;100.00;98381.40;109130;1257;60290;-62
2023/12/30 06:17:03;;;;;;;8.90;2.10;;;;;;;4.76;100.00;98383.27;109206;1257;59549;-61
2023/12/30 06:19:51;;;;;;;9.20;2.00;;;;;;;4.80;100.00;98381.86;108999;1257;73114;-62
2023/12/30 06:22:39;;;;;;;10.80;1.90;;;;;;;4.83;100.00;98387.94;109147;1257;65667;-62
2023/12/30 06:25:27;;;;;;;8.50;1.80;;;;;;;4.85;100.00;98390.96;109126;1257;72356;-60
2023/12/30 06:28:14;;;;;;;10.20;1.90;;;;;;;4.85;100.00;98392.21;108274;1257;1002960;-63
2023/12/30 06:31:02;;;;;;;7.20;1.60;;;;;;;4.84;100.00;98398.96;109092;1257;60372;-60
2023/12/30 06:33:50;;;;;;;9.00;1.90;;;;;;;4.82;100.00;98397.39;109068;1257;73760;-62
2023/12/30 06:36:41;;;;;;;7.70;1.70;;;;;;;4.80;100.00;98406.27;109069;1257;67666;-61
2023/12/30 06:39:31;;;;;;;5.80;1.70;;;;;;;4.80;100.00;98412.10;109022;1257;73694;-60
2023/12/30 06:42:18;;;;;;;8.30;2.00;;;;;;;4.77;100.00;98410.19;109100;1257;58948;-61
2023/12/30 06:45:07;;;;;;;8.60;2.10;;;;;;;4.74;100.00;98417.48;109077;1257;60227;-62
2023/12/30 06:47:55;;;;;;;9.70;2.50;;;;;;;4.70;100.00;98424.34;109132;1257;71898;-63
2023/12/30 06:50:43;;;;;;;9.50;1.90;;;;;;;4.68;100.00;98424.58;109174;1257;67598;-61
2023/12/30 06:53:31;;;;;;;9.60;2.10;;;;;;;4.66;100.00;98428.46;109152;1257;72811;-61
2023/12/30 06:56:20;;;;;;;8.10;2.00;;;;;;;4.67;100.00;98433.03;109119;1256;59517;-63
2023/12/30 06:59:08;;;;;;;8.80;2.10;;;;;;;4.66;100.00;98432.69;109091;1257;60017;-61
2023/12/30 07:02:00;;;;;;;7.90;2.00;;;;;;;4.65;100.00;98437.30;109087;1257;72819;-62
2023/12/30 07:04:48;;;;;;;7.20;2.20;;;;;;;4.64;100.00;98436.92;109173;1257;67758;-61
2023/12/30 07:07:36;;;;;;;8.50;2.20;;;;;;;4.59;100.00;98438.33;109129;1256;72902;-62
2023/12/30 07:10:23;;;;;;;12.40;2.50;;;;;;;4.57;100.00;98446.59;109080;1257;58491;-61
2023/12/30 07:13:11;;;;;;;9.60;2.30;;;;;;;4.52;100.00;98440.81;109107;1257;57816;-62
2023/12/30 07:15:59;;;;;;;7.80;1.80;;;;;;;4.52;100.00;98452.21;109148;1256;74004;-62
2023/12/30 07:18:47;;;;;;;7.10;1.70;;;;;;;4.51;100.00;98453.91;109155;1257;67739;-61
2023/12/30 07:21:35;;;;;;;7.60;2.20;;;;;;;4.50;100.00;98464.16;109018;1257;72608;-61
2023/12/30 07:24:23;;;;;;;8.40;2.60;;;;;;;4.46;100.00;98468.89;108998;1257;60919;-63
2023/12/30 07:27:10;;;;;;;8.00;2.00;;;;;;;4.44;100.00;98473.75;109028;1257;60766;-62
2023/12/30 07:29:58;;;;;;;9.80;2.70;;;;;;;4.42;100.00;98482.70;109069;1257;73362;-60
2023/12/30 07:32:46;;;;;;;10.70;2.50;;;;;;;4.38;100.00;98480.86;109204;1257;68678;-62
2023/12/30 07:35:33;;;;;;;9.80;2.30;;;;;;;4.35;100.00;98483.90;109135;1257;73655;-64
2023/12/30 07:38:21;;;;;;;8.40;2.20;;;;;;;4.35;100.00;98495.67;109169;1257;57600;-61
2023/12/30 07:41:09;;;;;;;6.60;2.00;;;;;;;4.33;100.00;98502.55;109200;1257;58818;-61
2023/12/30 07:43:57;;;;;;;8.40;1.90;;;;;;;4.26;100.00;98511.83;108947;1257;74044;-63
2023/12/30 07:46:45;;;;;;;8.90;2.10;;;;;;;4.26;100.00;98516.06;109079;1257;67752;-61
2023/12/30 07:49:33;;;;;;;10.10;2.70;;;;;;;4.23;100.00;98514.11;109142;1257;72455;-62
2023/12/30 07:52:24;;;;;;;6.40;1.80;;;;;;;4.24;100.00;98513.40;109020;1257;59592;-61
2023/12/30 07:55:12;;;;;;;8.40;2.10;;;;;;;4.23;100.00;98515.56;109146;1257;58759;-62
2023/12/30 07:58:00;;;;;;;11.40;2.00;;;;;;;4.26;100.00;98520.78;109132;1257;73839;-62
2023/12/30 08:00:50;;;;;;;8.00;1.90;;;;;;;4.28;100.00;98522.92;109152;1256;68708;-60
2023/12/30 08:03:37;;;;;;;9.60;1.90;;;;;;;4.29;100.00;98524.96;109091;1257;73473;-60
2023/12/30 08:06:25;;;;;;;7.70;1.90;;;;;;;4.29;100.00;98530.58;109159;1257;59447;-64
2023/12/30 08:09:12;;;;;;;7.10;2.20;;;;;;;4.29;100.00;98530.27;109170;1257;61138;-60
2023/12/30 08:12:00;;;;;;;6.80;1.60;;;;;;;4.28;100.00;98535.77;107570;1257;1002796;-64
2023/12/30 08:14:51;;;;;;;9.50;2.00;;;;;;;4.28;100.00;98542.02;109095;1257;67657;-62
2023/12/30 08:17:40;;;;;;;7.70;1.90;;;;;;;4.29;100.00;98542.48;109106;1257;73787;-61
2023/12/30 08:20:28;;;;;;;7.10;1.70;;;;;;;4.28;100.00;98543.64;109070;1257;58265;-60
2023/12/30 08:23:16;;;;;;;7.40;2.00;;;;;;;4.25;100.00;98545.44;109033;1257;59024;-62
2023/12/30 08:26:03;;;;;;;7.20;1.90;;;;;;;4.25;100.00;98543.80;109174;1256;71783;-64
2023/12/30 08:28:51;;;;;;;9.90;2.10;;;;;;;4.28;100.00;98543.63;109159;1257;67833;-63
2023/12/30 08:31:45;;;;;;;6.70;1.70;;;;;;;4.31;100.00;98545.71;109047;1257;72450;-62
2023/12/30 08:34:33;;;;;;;9.70;1.90;;;;;;;4.31;100.00;98542.54;109054;1257;58301;-61
2023/12/30 08:37:21;;;;;;;8.60;2.20;;;;;;;4.31;100.00;98542.89;109117;1257;60049;-65
2023/12/30 08:40:10;;;;;;;7.70;2.40;;;;;;;4.31;100.00;98547.61;109185;1257;73214;-61
2023/12/30 08:42:58;;;;;;;8.80;2.50;;;;;;;4.33;100.00;98549.02;109074;1257;68756;-63
2023/12/30 08:45:46;;;;;;;11.80;3.00;;;;;;;4.37;100.00;98552.95;109161;1256;72875;-63
2023/12/30 08:48:34;;;;;;;10.80;2.70;;;;;;;4.41;100.00;98560.92;109205;1256;57478;-62
2023/12/30 08:51:23;;;;;;;13.70;3.20;;;;;;;4.44;100.00;98570.01;109123;1257;61376;-63
2023/12/30 08:54:10;;;;;;;12.00;2.60;;;;;;;4.46;100.00;98571.99;109141;1257;71939;-62
2023/12/30 08:56:58;;;;;;;11.80;2.90;;;;;;;4.47;100.00;98573.50;109113;1260;66902;-63
2023/12/30 08:59:48;;;;;;;13.60;4.00;;;;;;;4.44;100.00;98572.98;109158;1257;72998;-63
2023/12/30 09:02:37;;;;;;;10.00;2.60;;;;;;;4.50;100.00;98586.05;109043;1257;59111;-62
2023/12/30 09:05:25;;;;;;;11.30;2.70;;;;;;;4.52;100.00;98588.21;109139;1257;61080;-62
2023/12/30 09:08:13;;;;;;;12.10;2.80;;;;;;;4.55;100.00;98596.39;109062;1257;71373;-62
2023/12/30 09:11:01;;;;;;;10.00;2.50;;;;;;;4.55;100.00;98599.73;109263;1257;67613;-61
2023/12/30 09:13:51;;;;;;;7.60;2.10;;;;;;;4.56;100.00;98602.30;109132;1256;72420;-65
2023/12/30 09:16:39;;;;;;;7.60;2.10;;;;;;;4.54;100.00;98605.04;109136;1257;60604;-62
2023/12/30 09:19:27;;;;;;;6.50;1.60;;;;;;;4.53;100.00;98605.16;109157;1257;58041;-62
2023/12/30 09:22:16;;;;;;;8.70;1.60;;;;;;;4.51;100.00;98612.53;109077;1257;72527;-61
2023/12/30 09:25:04;;;;;;;7.30;1.70;;;;;;;4.44;100.00;98618.83;109206;1256;67710;-60
2023/12/30 09:27:52;;;;;;;8.10;1.70;;;;;;;4.36;100.00;98626.84;109117;1257;72617;-62
2023/12/30 09:30:39;;;;;;;6.10;1.60;;;;;;;4.29;100.00;98633.45;109158;1257;57281;-63
2023/12/30 09:33:28;;;;;;;6.00;1.80;;;;;;;4.23;100.00;98635.83;109030;1257;61263;-62
2023/12/30 09:36:19;;;;;;;7.40;2.00;;;;;;;4.19;100.00;98638.93;109108;1257;74002;-63
2023/12/30 09:39:10;;;;;;;7.10;1.50;;;;;;;4.18;100.00;98637.61;109033;1257;67833;-62
2023/12/30 09:41:58;;;;;;;5.50;1.60;;;;;;;4.14;100.00;98638.43;109172;1257;71312;-62
2023/12/30 09:44:47;;;;;;;6.20;1.80;;;;;;;4.12;100.00;98647.52;109135;1257;59269;-63
2023/12/30 09:47:36;;;;;;;5.00;1.50;;;;;;;4.13;100.00;98653.63;109126;1257;59998;-61
2023/12/30 09:50:23;;;;;;;5.80;1.80;;;;;;;4.17;100.00;98651.95;109093;1257;73102;-62
2023/12/30 09:53:11;;;;;;;5.40;1.80;;;;;;;4.28;100.00;98657.26;109127;1257;65794;-60
2023/12/30 09:56:00;;;;;;;5.10;1.60;;;;;;;4.35;100.00;98661.27;109094;1257;73373;-62
2023/12/30 09:58:49;;;;;;;5.50;1.60;;;;;;;4.41;100.00;98655.20;109007;1258;57657;-61
2023/12/30 10:01:37;;;;;;;7.40;1.90;;;;;;;4.46;100.00;98661.55;109085;1257;61238;-62
2023/12/30 10:04:27;;;;;;;6.90;1.90;;;;;;;4.46;100.00;98668.02;109196;1257;72943;-63
2023/12/30 10:07:16;;;;;;;6.40;1.60;;;;;;;4.45;100.00;98671.61;109180;1257;66822;-60
2023/12/30 10:10:04;;;;;;;6.30;1.60;;;;;;;4.41;100.00;98668.38;109053;1257;73794;-63
2023/12/30 10:12:52;;;;;;;6.20;1.80;;;;;;;4.38;100.00;98670.92;109105;1256;59258;-63
2023/12/30 10:15:42;;;;;;;5.70;1.80;;;;;;;4.29;100.00;98666.15;109210;1256;59197;-62
2023/12/30 10:18:31;;;;;;;5.40;1.50;;;;;;;4.29;100.00;98668.92;109234;1257;74400;-64
2023/12/30 10:21:19;;;;;;;5.80;1.90;;;;;;;4.29;100.00;98676.84;109135;1257;67602;-63
2023/12/30 10:24:07;;;;;;;6.50;1.80;;;;;;;4.28;100.00;98681.46;109170;1257;71410;-63
2023/12/30 10:26:58;;;;;;;6.70;1.90;;;;;;;4.29;100.00;98673.48;109076;1257;57482;-66
2023/12/30 10:29:54;;;;;;;7.40;1.80;;;;;;;4.28;100.00;98676.91;109165;1257;60702;-62
2023/12/30 10:32:47;;;;;;;6.00;1.40;;;;;;;4.30;100.00;98683.13;109053;1257;73122;-63
2023/12/30 10:35:43;;;;;;;9.30;2.10;;;;;;;4.33;100.00;98684.98;109184;1257;66054;-62
2023/12/30 10:38:32;;;;;;;6.20;1.70;;;;;;;4.43;100.00;98684.89;107531;1257;1002894;-63
2023/12/30 10:41:20;;;;;;;6.50;1.60;;;;;;;4.49;100.00;98687.29;109153;1257;59432;-63
2023/12/30 10:44:10;;;;;;;6.00;1.70;;;;;;;4.46;100.00;98684.23;109032;1257;58928;-64
2023/12/30 10:46:59;;;;;;;7.00;1.90;;;;;;;4.48;100.00;98689.36;109050;1257;71619;-62
2023/12/30 10:49:54;;;;;;;6.00;1.70;;;;;;;4.49;100.00;98695.09;109135;1257;68002;-62
2023/12/30 10:52:49;;;;;;;7.30;1.80;;;;;;;4.49;100.00;98691.52;109003;1257;72776;-63
2023/12/30 10:55:48;;;;;;;7.10;1.60;;;;;;;4.48;100.00;98694.23;109158;1257;58323;-63
2023/12/30 10:58:39;;;;;;;5.90;1.80;;;;;;;4.53;100.00;98693.48;109131;1257;60499;-61
2023/12/30 11:01:27;;;;;;;5.60;1.70;;;;;;;4.63;100.00;98696.46;109126;1257;71767;-64
2023/12/30 11:04:16;;;;;;;5.60;1.50;;;;;;;4.66;100.00;98700.67;109165;1257;66357;-63
2023/12/30 11:07:10;;;;;;;7.30;1.80;;;;;;;4.62;100.00;98708.33;109044;1257;71283;-62
2023/12/30 11:09:58;;;;;;;5.80;1.50;;;;;;;4.58;100.00;98712.23;109025;1257;57936;-65
2023/12/30 11:12:46;;;;;;;6.80;1.60;;;;;;;4.58;100.00;98717.70;109121;1257;60106;-61
2023/12/30 11:15:33;;;;;;;6.50;1.80;;;;;;;4.56;100.00;98727.54;109116;1257;73790;-63
2023/12/30 11:18:48;;;;;;;7.90;1.80;;;;;;;4.51;100.00;98733.84;109161;1257;66762;-61
2023/12/30 11:21:46;;;;;;;7.00;1.50;;;;;;;4.46;100.00;98733.91;109150;1257;73392;-62
2023/12/30 11:24:34;;;;;;;6.30;1.90;;;;;;;4.45;100.00;98737.98;109074;1257;57603;-61
2023/12/30 11:27:22;;;;;;;7.00;2.00;;;;;;;4.42;100.00;98742.39;109105;1257;61450;-62
2023/12/30 11:30:17;;;;;;;7.40;2.00;;;;;;;4.37;100.00;98740.34;109180;1257;73158;-63
2023/12/30 11:33:05;;;;;;;7.00;1.90;;;;;;;4.33;100.00;98741.00;109058;1257;68565;-62
2023/12/30 11:35:54;;;;;;;7.40;1.90;;;;;;;4.34;100.00;98747.94;109214;1257;72764;-65
2023/12/30 11:38:47;;;;;;;6.00;1.70;;;;;;;4.31;100.00;98749.38;109076;1257;59602;-65
2023/12/30 11:41:35;;;;;;;5.90;1.90;;;;;;;4.31;100.00;98751.55;109184;1257;61215;-64
2023/12/30 11:44:23;;;;;;;6.70;1.90;;;;;;;4.32;100.00;98754.57;109116;1257;72989;-63
2023/12/30 11:47:21;;;;;;;7.20;2.10;;;;;;;4.29;100.00;98752.50;109114;1257;66763;-65
2023/12/30 11:50:08;;;;;;;6.20;2.00;;;;;;;4.28;100.00;98751.38;109046;1257;73941;-62
2023/12/30 11:53:01;;;;;;;5.80;1.90;;;;;;;4.28;100.00;98750.11;109145;1257;57385;-62
2023/12/30 11:55:49;;;;;;;6.60;2.10;;;;;;;4.27;100.00;98755.98;109115;1257;58220;-65
2023/12/30 11:58:37;;;;;;;6.80;2.00;;;;;;;4.28;100.00;98761.05;109108;1257;72740;-64
2023/12/30 12:01:25;;;;;;;7.60;2.50;;;;;;;4.24;100.00;98767.23;109121;1257;69141;-62
2023/12/30 12:04:15;;;;;;;9.40;2.50;;;;;;;4.23;100.00;98766.63;109112;1257;72686;-62
2023/12/30 12:07:04;;;;;;;8.10;2.40;;;;;;;4.24;100.00;98775.66;109124;1257;58384;-62
2023/12/30 12:09:53;;;;;;;7.10;1.90;;;;;;;4.23;100.00;98776.09;109151;1257;58915;-62
2023/12/30 12:12:45;;;;;;;7.30;2.10;;;;;;;4.22;100.00;98775.17;109139;1257;72804;-63
2023/12/30 12:15:33;;;;;;;6.10;1.80;;;;;;;4.24;100.00;98775.02;109164;1257;68142;-61
2023/12/30 12:18:23;;;;;;;8.00;1.90;;;;;;;4.18;100.00;98779.27;109027;1257;73654;-67
2023/12/30 12:21:13;;;;;;;5.90;1.70;;;;;;;4.15;100.00;98779.52;109123;1257;57596;-65
2023/12/30 12:24:00;;;;;;;5.40;1.70;;;;;;;4.16;100.00;98775.95;109168;1257;58769;-65
2023/12/30 12:26:48;;;;;;;5.70;1.80;;;;;;;4.14;100.00;98780.08;109146;1257;72128;-64
2023/12/30 12:29:49;;;;;;;5.80;1.90;;;;;;;4.17;100.00;98777.42;109145;1257;67931;-62
2023/12/30 12:32:40;;;;;;;6.40;2.00;;;;;;;4.15;100.00;98780.20;109024;1257;73432;-63
2023/12/30 12:35:30;;;;;;;5.90;1.80;;;;;;;4.14;100.00;98783.27;109074;1257;58370;-62
2023/12/30 12:38:18;;;;;;;5.40;1.60;;;;;;;4.14;100.00;98784.30;108998;1257;61327;-62
2023/12/30 12:41:06;;;;;;;5.70;1.70;;;;;;;4.20;100.00;98788.06;109110;1256;72932;-64
2023/12/30 12:43:54;;;;;;;6.90;1.80;;;;;;;4.24;100.00;98785.90;109120;1256;66735;-62
2023/12/30 12:46:41;;;;;;;6.00;1.70;;;;;;;4.26;100.00;98791.33;109101;1257;71790;-62
2023/12/30 12:49:29;;;;;;;7.60;2.00;;;;;;;4.25;100.00;98794.03;109103;1257;57363;-62
2023/12/30 12:52:17;;;;;;;5.90;1.70;;;;;;;4.23;100.00;98794.23;109149;1257;60080;-63
2023/12/30 12:55:05;;;;;;;6.10;1.80;;;;;;;4.24;100.00;98796.73;109139;1257;71281;-63
2023/12/30 12:57:53;;;;;;;7.40;2.00;;;;;;;4.24;100.00;98804.63;109091;1257;66277;-62
2023/12/30 13:00:42;;;;;;;7.20;1.80;;;;;;;4.22;100.00;98805.52;107598;1257;1003061;-63
2023/12/30 13:03:29;;;;;;;7.90;1.80;;;;;;;4.19;100.00;98811.86;108276;1257;1002225;-65